createdAt,value
2023-01-18T00:02:56.256Z,15.50
2023-01-18T00:05:23.361Z,26.10
2023-01-18T00:07:50.867Z,24.40
2023-01-18T00:10:18.008Z,23.40
2023-01-18T00:12:45.269Z,26.20
2023-01-18T00:15:12.130Z,23.20
2023-01-18T00:17:47.920Z,25.10
2023-01-18T00:20:15.328Z,22.30
2023-01-18T00:22:42.786Z,25.40
2023-01-18T00:25:11.899Z,30.50
2023-01-18T00:27:38.912Z,23.70
2023-01-18T00:30:06.781Z,23.80
2023-01-18T00:32:34.053Z,22.70
2023-01-18T00:35:03.334Z,22.70
2023-01-18T00:37:32.465Z,25.10
2023-01-18T00:39:59.479Z,28.10
2023-01-18T00:42:45.161Z,25.80
2023-01-18T00:45:12.130Z,20.90
2023-01-18T00:47:39.051Z,21.40
2023-01-18T00:50:06.609Z,25.90
2023-01-18T00:52:35.003Z,24.20
2023-01-18T00:55:04.003Z,21.00
2023-01-18T00:57:31.141Z,20.00
2023-01-18T00:59:58.282Z,27.10
2023-01-18T01:02:25.272Z,23.50
2023-01-18T01:05:11.050Z,23.50
2023-01-18T01:07:37.999Z,17.60
2023-01-18T01:10:09.411Z,23.60
2023-01-18T01:12:55.820Z,24.10
2023-01-18T01:15:41.701Z,23.10
2023-01-18T01:18:28.005Z,11.90
2023-01-18T01:21:13.786Z,25.00
2023-01-18T01:23:59.480Z,18.00
2023-01-18T01:26:26.417Z,25.30
2023-01-18T01:28:53.390Z,22.20
2023-01-18T01:31:20.639Z,23.50
2023-01-18T01:33:50.534Z,21.40
2023-01-18T01:36:21.715Z,23.70
2023-01-18T01:38:48.623Z,21.10
2023-01-18T01:41:26.794Z,21.50
2023-01-18T01:46:49.594Z,14.40
2023-01-18T01:49:19.995Z,25.00
2023-01-18T01:51:58.730Z,24.50
2023-01-18T01:54:30.200Z,26.20
2023-01-18T01:57:20.897Z,24.30
2023-01-18T02:00:00.657Z,25.00
2023-01-18T02:16:43.716Z,19.40
2023-01-18T02:19:29.703Z,22.70
2023-01-18T02:22:00.909Z,21.30
2023-01-18T02:24:48.746Z,25.00
2023-01-18T02:27:22.608Z,23.70
2023-01-18T02:29:49.623Z,26.30
2023-01-18T02:32:28.663Z,24.20
2023-01-18T02:35:06.635Z,29.70
2023-01-18T02:37:42.859Z,22.40
2023-01-18T02:40:19.617Z,21.80
2023-01-18T02:43:05.408Z,21.40
2023-01-18T02:46:09.269Z,24.40
2023-01-18T02:48:38.002Z,21.00
2023-01-18T02:51:05.610Z,30.60
2023-01-18T02:53:33.725Z,24.90
2023-01-18T02:56:06.993Z,21.80
2023-01-18T02:58:35.576Z,19.10
2023-01-18T03:01:08.582Z,26.10
2023-01-18T03:03:35.713Z,23.40
2023-01-18T03:06:03.314Z,23.90
2023-01-18T03:08:36.429Z,21.40
2023-01-18T03:11:06.679Z,25.40
2023-01-18T03:14:03.422Z,20.40
2023-01-18T03:16:58.128Z,19.50
2023-01-18T03:19:52.524Z,21.20
2023-01-18T03:22:19.566Z,21.20
2023-01-18T03:24:46.581Z,24.90
2023-01-18T03:27:32.173Z,20.70
2023-01-18T03:30:17.902Z,25.20
2023-01-18T03:33:03.848Z,16.60
2023-01-18T03:35:30.783Z,19.40
2023-01-18T03:37:57.670Z,22.10
2023-01-18T03:40:27.509Z,26.70
2023-01-18T03:43:00.766Z,20.60
2023-01-18T03:45:29.523Z,27.20
2023-01-18T03:47:56.383Z,24.90
2023-01-18T03:50:26.498Z,23.80
2023-01-18T03:52:56.396Z,24.10
2023-01-18T03:55:26.667Z,21.70
2023-01-18T03:57:59.930Z,20.30
2023-01-18T04:00:27.028Z,20.50
2023-01-18T04:02:53.957Z,18.00
2023-01-18T04:05:21.060Z,24.20
2023-01-18T04:07:48.047Z,19.60
2023-01-18T04:10:15.165Z,16.10
2023-01-18T04:12:42.215Z,19.80
2023-01-18T04:15:10.197Z,19.20
2023-01-18T04:17:37.183Z,19.20
2023-01-18T04:20:04.602Z,20.20
2023-01-18T04:22:31.570Z,19.70
2023-01-18T04:24:58.555Z,18.70
2023-01-18T04:27:25.486Z,17.80
2023-01-18T04:29:52.591Z,16.20
2023-01-18T04:32:19.603Z,17.90
2023-01-18T04:34:46.631Z,19.70
2023-01-18T04:37:13.617Z,17.20
2023-01-18T04:39:40.774Z,21.70
2023-01-18T04:42:07.952Z,16.50
2023-01-18T04:44:34.984Z,14.90
2023-01-18T04:47:02.054Z,20.10
2023-01-18T04:49:29.029Z,19.30
2023-01-18T04:51:56.008Z,15.90
2023-01-18T04:54:22.997Z,17.10
2023-01-18T04:56:50.142Z,20.30
2023-01-18T04:59:17.220Z,17.40
2023-01-18T05:01:44.791Z,17.20
2023-01-18T05:21:54.323Z,19.20
2023-01-18T05:24:21.579Z,16.30
2023-01-18T05:26:49.032Z,16.60
2023-01-18T05:29:17.365Z,15.10
2023-01-18T05:31:44.371Z,16.60
2023-01-18T05:34:11.213Z,16.20
2023-01-18T05:36:38.143Z,16.60
2023-01-18T05:39:05.426Z,18.10
2023-01-18T05:41:32.380Z,15.90
2023-01-18T05:43:59.481Z,14.00
2023-01-18T05:46:26.453Z,16.50
2023-01-18T05:48:59.366Z,15.70
2023-01-18T05:51:26.353Z,18.90
2023-01-18T06:07:15.169Z,15.90
2023-01-18T06:09:43.033Z,14.00
2023-01-18T06:12:10.353Z,15.70
2023-01-18T06:14:37.388Z,16.20
2023-01-18T06:17:05.667Z,16.10
2023-01-18T06:19:32.629Z,17.80
2023-01-18T06:22:00.116Z,19.70
2023-01-18T06:24:27.187Z,19.20
2023-01-18T06:26:54.125Z,18.00
2023-01-18T06:29:21.062Z,18.60
2023-01-18T06:31:48.211Z,16.40
2023-01-18T06:34:15.400Z,20.30
2023-01-18T06:36:42.298Z,17.80
2023-01-18T06:39:09.298Z,15.40
2023-01-18T06:41:36.220Z,17.20
2023-01-18T06:44:03.850Z,12.80
2023-01-18T06:46:31.014Z,17.70
2023-01-18T06:48:57.936Z,23.60
2023-01-18T06:51:24.951Z,15.50
2023-01-18T06:53:51.902Z,19.40
2023-01-18T06:56:18.786Z,17.40
2023-01-18T06:58:45.898Z,14.80
2023-01-18T07:01:12.932Z,19.00
2023-01-18T07:03:40.214Z,16.90
2023-01-18T07:06:07.817Z,17.20
2023-01-18T07:08:35.880Z,12.90
2023-01-18T07:11:07.239Z,21.40
2023-01-18T07:13:35.284Z,17.40
2023-01-18T07:16:02.289Z,17.00
2023-01-18T07:18:29.913Z,16.20
2023-01-18T07:21:04.326Z,13.80
2023-01-18T07:23:31.283Z,13.30
2023-01-18T07:26:17.782Z,12.60
2023-01-18T07:31:12.035Z,18.30
2023-01-18T07:33:39.244Z,17.30
2023-01-18T07:36:06.750Z,17.60
2023-01-18T07:38:34.004Z,17.20
2023-01-18T07:41:08.660Z,13.40
2023-01-18T07:43:37.667Z,19.90
2023-01-18T07:46:05.373Z,17.50
2023-01-18T07:48:32.454Z,16.60
2023-01-18T07:51:04.098Z,14.60
2023-01-18T07:53:33.246Z,16.80
2023-01-18T07:56:01.278Z,16.20
2023-01-18T07:58:28.547Z,17.50
2023-01-18T08:00:55.560Z,16.10
2023-01-18T08:03:22.529Z,16.30
2023-01-18T08:05:49.585Z,19.60
2023-01-18T08:08:17.091Z,16.70
2023-01-18T08:10:44.469Z,15.90
2023-01-18T08:13:11.752Z,17.10
2023-01-18T08:15:39.293Z,17.70
2023-01-18T08:18:06.654Z,16.90
2023-01-18T08:20:33.783Z,20.40
2023-01-18T08:23:01.582Z,18.00
2023-01-18T08:25:29.991Z,18.00
2023-01-18T08:27:59.365Z,20.80
2023-01-18T08:30:28.384Z,22.50
2023-01-18T08:32:58.892Z,24.20
2023-01-18T08:35:27.717Z,24.30
2023-01-18T08:37:54.658Z,21.30
2023-01-18T08:40:22.707Z,22.70
2023-01-18T08:42:49.842Z,22.40
2023-01-18T08:45:17.735Z,23.90
2023-01-18T08:47:44.930Z,23.20
2023-01-18T08:50:11.819Z,20.30
2023-01-18T08:52:39.119Z,19.90
2023-01-18T08:55:06.819Z,20.20
2023-01-18T08:57:33.929Z,20.40
2023-01-18T09:00:01.124Z,23.70
2023-01-18T09:02:28.071Z,23.90
2023-01-18T09:04:55.671Z,29.80
2023-01-18T09:07:22.765Z,29.70
2023-01-18T09:09:49.818Z,24.40
2023-01-18T09:12:16.716Z,26.40
2023-01-18T09:14:43.569Z,27.50
2023-01-18T09:17:10.765Z,26.30
2023-01-18T09:19:37.845Z,30.80
2023-01-18T09:22:06.445Z,31.10
2023-01-18T09:24:33.527Z,31.30
2023-01-18T09:27:00.526Z,27.80
2023-01-18T09:29:27.500Z,35.10
2023-01-18T09:31:56.171Z,30.90
2023-01-18T09:34:23.295Z,21.20
2023-01-18T09:36:51.583Z,29.60
2023-01-18T09:39:19.969Z,27.70
2023-01-18T09:55:18.937Z,22.20
2023-01-18T09:58:01.706Z,25.90
2023-01-18T10:00:31.144Z,21.60
2023-01-18T10:03:01.272Z,28.70
2023-01-18T10:05:31.200Z,23.50
2023-01-18T10:08:04.108Z,21.80
2023-01-18T10:10:39.504Z,32.30
2023-01-18T10:13:14.790Z,28.70
2023-01-18T10:15:41.735Z,31.00
2023-01-18T10:18:08.749Z,31.80
2023-01-18T10:20:46.102Z,28.90
2023-01-18T10:23:17.636Z,32.20
2023-01-18T10:25:53.473Z,33.70
2023-01-18T10:31:35.929Z,38.80
2023-01-18T10:34:04.563Z,35.60
2023-01-18T10:36:41.979Z,31.70
2023-01-18T10:39:23.030Z,33.40
2023-01-18T10:41:50.438Z,28.20
2023-01-18T10:44:17.855Z,35.50
2023-01-18T10:46:45.415Z,33.70
2023-01-18T10:49:33.727Z,33.30
2023-01-18T10:52:29.694Z,31.60
2023-01-18T10:55:01.901Z,34.80
2023-01-18T10:57:31.057Z,37.50
2023-01-18T10:59:58.596Z,37.00
2023-01-18T11:17:12.299Z,26.90
2023-01-18T11:19:39.472Z,32.20
2023-01-18T11:22:13.348Z,27.20
2023-01-18T11:24:40.298Z,32.60
2023-01-18T11:27:25.379Z,25.30
2023-01-18T11:29:52.270Z,16.20
2023-01-18T11:32:26.431Z,22.90
2023-01-18T11:34:54.912Z,19.20
2023-01-18T11:37:36.059Z,14.80
2023-01-18T11:40:21.210Z,11.40
2023-01-18T11:42:51.501Z,16.40
2023-01-18T11:46:05.582Z,18.80
2023-01-18T11:48:41.386Z,13.70
2023-01-18T11:51:36.698Z,17.80
2023-01-18T11:54:16.558Z,15.70
2023-01-18T12:27:39.884Z,19.60
2023-01-18T12:30:22.186Z,17.80
2023-01-18T12:33:17.226Z,13.00
2023-01-18T12:36:06.859Z,19.60
2023-01-18T12:38:34.185Z,15.40
2023-01-18T12:41:11.320Z,17.40
2023-01-18T12:43:41.184Z,14.60
2023-01-18T12:46:33.241Z,15.30
2023-01-18T12:49:03.217Z,16.30
2023-01-18T12:51:33.612Z,14.60
2023-01-18T12:54:03.166Z,17.90
2023-01-18T12:56:41.673Z,13.00
2023-01-18T12:59:15.500Z,16.50
2023-01-18T13:01:45.738Z,23.50
2023-01-18T13:04:19.984Z,18.80
2023-01-18T13:06:49.059Z,16.20
2023-01-18T13:09:18.433Z,19.20
2023-01-18T13:11:45.170Z,19.60
2023-01-18T13:14:27.641Z,20.20
2023-01-18T13:17:03.656Z,15.70
2023-01-18T13:19:43.120Z,17.20
2023-01-18T13:22:23.777Z,10.90
2023-01-18T13:25:18.954Z,16.60
2023-01-18T13:28:02.930Z,18.70
2023-01-18T13:30:49.288Z,18.70
2023-01-18T13:33:21.590Z,19.10
2023-01-18T13:35:50.787Z,28.60
2023-01-18T13:38:18.969Z,19.50
2023-01-18T13:40:55.816Z,16.70
2023-01-18T13:43:37.035Z,16.80
2023-01-18T13:46:20.327Z,19.10
2023-01-18T13:49:01.713Z,18.30
2023-01-18T13:51:40.986Z,22.80
2023-01-18T13:57:21.864Z,19.60
2023-01-18T13:59:50.139Z,13.90
2023-01-18T14:02:41.564Z,19.90
2023-01-18T14:05:19.673Z,20.10
2023-01-18T14:07:48.865Z,21.00
2023-01-18T14:10:40.295Z,19.20
2023-01-18T14:13:08.157Z,13.80
2023-01-18T14:15:41.654Z,22.50
2023-01-18T14:18:32.655Z,18.10
2023-01-18T14:21:21.616Z,18.10
2023-01-18T14:24:28.159Z,24.30
2023-01-18T14:26:55.248Z,21.40
2023-01-18T14:29:34.273Z,15.90
2023-01-18T14:32:01.186Z,20.20
2023-01-18T14:34:29.490Z,16.90
2023-01-18T14:36:57.058Z,17.30
2023-01-18T14:39:23.994Z,14.60
2023-01-18T14:42:03.950Z,16.80
2023-01-18T14:44:30.827Z,16.80
2023-01-18T14:46:57.807Z,15.90
2023-01-18T14:49:39.787Z,13.60
2023-01-18T14:52:07.793Z,16.10
2023-01-18T14:54:35.667Z,16.90
2023-01-18T14:57:04.559Z,16.90
2023-01-18T14:59:33.046Z,18.40
2023-01-18T15:02:14.161Z,18.10
2023-01-18T15:04:45.067Z,17.40
2023-01-18T15:07:21.831Z,16.60
2023-01-18T15:09:49.435Z,17.60
2023-01-18T15:12:19.144Z,17.70
2023-01-18T15:14:47.952Z,17.10
2023-01-18T15:17:21.382Z,20.20
2023-01-18T15:19:52.424Z,20.80
2023-01-18T15:22:20.296Z,17.80
2023-01-18T15:24:47.343Z,15.90
2023-01-18T15:27:15.818Z,16.50
2023-01-18T15:30:01.654Z,13.90
2023-01-18T15:32:30.020Z,21.50
2023-01-18T15:34:59.290Z,21.40
2023-01-18T15:37:31.971Z,17.30
2023-01-18T15:40:22.570Z,20.20
2023-01-18T15:43:00.479Z,16.50
2023-01-18T15:45:33.000Z,17.10
2023-01-18T15:48:05.469Z,17.20
2023-01-18T15:50:37.077Z,24.80
2023-01-18T15:53:23.170Z,19.80
2023-01-18T19:55:00.637Z,26.20
2023-01-18T19:57:27.876Z,18.60
2023-01-18T19:59:54.719Z,20.00
2023-01-18T20:02:22.475Z,15.80
2023-01-18T20:04:49.738Z,21.20
2023-01-18T20:07:16.684Z,17.40
2023-01-18T20:09:44.157Z,20.30
2023-01-18T20:25:53.518Z,21.70
2023-01-18T20:28:20.387Z,18.30
2023-01-18T20:30:49.291Z,19.60
2023-01-18T20:33:16.721Z,19.20
2023-01-18T20:35:44.642Z,21.50
2023-01-18T20:38:12.665Z,26.40
2023-01-18T20:40:40.139Z,23.00
2023-01-18T20:43:06.964Z,22.70
2023-01-18T20:45:34.038Z,18.20
2023-01-18T20:48:01.236Z,25.80
2023-01-18T20:50:28.155Z,19.10
2023-01-18T20:52:55.110Z,29.80
2023-01-18T21:00:22.683Z,21.60
2023-01-18T21:02:50.393Z,23.30
2023-01-18T21:05:17.658Z,18.50
2023-01-18T21:07:44.534Z,23.30
2023-01-18T21:10:11.856Z,15.40
2023-01-18T21:12:38.783Z,23.80
2023-01-18T21:15:09.096Z,19.00
2023-01-18T21:17:36.452Z,20.60
2023-01-18T21:20:03.795Z,19.60
2023-01-18T21:22:30.739Z,18.80
2023-01-18T21:24:58.233Z,23.60
2023-01-18T21:27:26.786Z,20.00
2023-01-18T21:29:54.336Z,19.30
2023-01-18T21:32:22.829Z,24.50
2023-01-18T21:34:49.789Z,25.20
2023-01-18T21:37:16.814Z,16.60
2023-01-18T21:39:43.658Z,32.60
2023-01-18T21:42:29.958Z,20.30
2023-01-18T21:45:15.750Z,19.10
2023-01-18T21:47:42.718Z,22.70
2023-01-18T21:50:29.545Z,19.40
2023-01-18T21:53:15.133Z,24.50
2023-01-18T21:56:47.376Z,20.50
2023-01-18T21:59:14.431Z,22.30
2023-01-18T22:01:43.169Z,19.30
2023-01-18T22:04:30.235Z,17.50
2023-01-18T22:06:59.356Z,20.40
2023-01-18T22:09:27.370Z,28.00
2023-01-18T22:11:56.442Z,18.60
2023-01-18T22:14:23.929Z,19.80
2023-01-18T22:16:50.918Z,18.90
2023-01-18T22:19:19.376Z,22.30
2023-01-18T22:21:46.627Z,16.20
2023-01-18T22:24:13.880Z,19.70
2023-01-18T22:26:41.441Z,18.60
2023-01-18T22:29:08.464Z,18.10
2023-01-18T22:31:35.644Z,20.30
2023-01-18T22:34:04.465Z,17.90
2023-01-18T22:36:32.701Z,14.70
2023-01-18T22:38:59.772Z,18.40
2023-01-18T22:41:27.825Z,23.90
2023-01-18T22:43:55.078Z,18.50
2023-01-18T22:46:23.711Z,18.40
2023-01-18T22:48:51.034Z,23.50
2023-01-18T22:51:20.393Z,15.50
2023-01-18T22:53:48.079Z,14.30
2023-01-18T22:56:18.713Z,12.80
2023-01-18T22:58:45.858Z,14.80
2023-01-18T23:01:13.741Z,10.70
2023-01-18T23:03:40.805Z,12.90
2023-01-18T23:06:10.585Z,10.20
2023-01-18T23:08:42.673Z,11.40
2023-01-18T23:11:24.957Z,9.90
2023-01-18T23:14:13.974Z,9.30
2023-01-18T23:16:59.697Z,11.30
2023-01-18T23:19:28.199Z,9.60
2023-01-18T23:21:56.465Z,14.00
2023-01-18T23:24:23.485Z,12.30
2023-01-18T23:26:50.867Z,11.20
2023-01-18T23:29:17.929Z,17.40
2023-01-18T23:31:44.866Z,14.40
2023-01-18T23:34:11.803Z,12.70
2023-01-18T23:36:38.768Z,12.60
2023-01-18T23:39:24.546Z,17.40
2023-01-18T23:42:10.323Z,7.50
2023-01-18T23:44:55.982Z,16.60
2023-01-18T23:47:41.638Z,12.70
2023-01-18T23:50:28.431Z,15.10
2023-01-18T23:53:14.195Z,13.10
